sensor_id;sensor_type;location;lat;lon;timestamp;temperature;humidity
25410;DHT22;13339;50.840;4.346;2024-01-30T00:02:16;14.10;99.90
25410;DHT22;13339;50.840;4.346;2024-01-30T00:04:42;14.10;99.90
25410;DHT22;13339;50.840;4.346;2024-01-30T00:07:07;14.30;99.90
25410;DHT22;13339;50.840;4.346;2024-01-30T00:09:33;14.30;99.90
25410;DHT22;13339;50.840;4.346;2024-01-30T00:11:59;14.20;99.90
25410;DHT22;13339;50.840;4.346;2024-01-30T00:14:25;14.30;99.90
25410;DHT22;13339;50.840;4.346;2024-01-30T00:16:51;14.30;99.90
25410;DHT22;13339;50.840;4.346;2024-01-30T00:19:17;14.30;99.90
25410;DHT22;13339;50.840;4.346;2024-01-30T00:21:42;14.20;99.90
25410;DHT22;13339;50.840;4.346;2024-01-30T00:24:08;14.20;99.90
25410;DHT22;13339;50.840;4.346;2024-01-30T00:26:34;14.20;99.90
25410;DHT22;13339;50.840;4.346;2024-01-30T00:29:00;14.20;99.90
25410;DHT22;13339;50.840;4.346;2024-01-30T00:31:26;14.10;99.90
25410;DHT22;13339;50.840;4.346;2024-01-30T00:33:51;14.10;99.90
25410;DHT22;13339;50.840;4.346;2024-01-30T00:36:17;14.10;99.90
25410;DHT22;13339;50.840;4.346;2024-01-30T00:38:43;14.20;99.90
25410;DHT22;13339;50.840;4.346;2024-01-30T00:41:09;14.20;99.90
25410;DHT22;13339;50.840;4.346;2024-01-30T00:43:36;14.30;99.90
25410;DHT22;13339;50.840;4.346;2024-01-30T00:46:01;14.30;99.90
25410;DHT22;13339;50.840;4.346;2024-01-30T00:48:27;14.30;99.90
25410;DHT22;13339;50.840;4.346;2024-01-30T00:50:53;14.40;99.90
25410;DHT22;13339;50.840;4.346;2024-01-30T00:53:18;14.30;99.90
25410;DHT22;13339;50.840;4.346;2024-01-30T00:55:44;14.30;99.90
25410;DHT22;13339;50.840;4.346;2024-01-30T00:58:09;14.30;99.90
25410;DHT22;13339;50.840;4.346;2024-01-30T01:00:35;14.40;99.90
25410;DHT22;13339;50.840;4.346;2024-01-30T01:03:01;14.40;99.90
25410;DHT22;13339;50.840;4.346;2024-01-30T01:05:27;14.40;99.90
25410;DHT22;13339;50.840;4.346;2024-01-30T01:07:52;14.30;99.90
25410;DHT22;13339;50.840;4.346;2024-01-30T01:10:18;14.40;99.90
25410;DHT22;13339;50.840;4.346;2024-01-30T01:12:44;14.50;99.90
25410;DHT22;13339;50.840;4.346;2024-01-30T01:15:10;14.50;99.90
25410;DHT22;13339;50.840;4.346;2024-01-30T01:17:37;14.50;99.90
25410;DHT22;13339;50.840;4.346;2024-01-30T01:20:03;14.60;99.90
25410;DHT22;13339;50.840;4.346;2024-01-30T01:22:30;14.60;99.90
25410;DHT22;13339;50.840;4.346;2024-01-30T01:24:56;14.60;99.90
25410;DHT22;13339;50.840;4.346;2024-01-30T01:27:21;14.60;99.90
25410;DHT22;13339;50.840;4.346;2024-01-30T01:29:47;14.50;99.90
25410;DHT22;13339;50.840;4.346;2024-01-30T01:32:13;14.50;99.90
25410;DHT22;13339;50.840;4.346;2024-01-30T01:34:38;14.40;99.90
25410;DHT22;13339;50.840;4.346;2024-01-30T01:37:04;14.40;99.90
25410;DHT22;13339;50.840;4.346;2024-01-30T01:39:29;14.50;99.90
25410;DHT22;13339;50.840;4.346;2024-01-30T01:41:55;14.50;99.90
25410;DHT22;13339;50.840;4.346;2024-01-30T01:44:21;14.50;99.90
25410;DHT22;13339;50.840;4.346;2024-01-30T01:46:47;14.60;99.90
25410;DHT22;13339;50.840;4.346;2024-01-30T01:49:13;14.60;99.90
25410;DHT22;13339;50.840;4.346;2024-01-30T01:51:40;14.70;99.90
25410;DHT22;13339;50.840;4.346;2024-01-30T01:54:06;14.70;99.90
25410;DHT22;13339;50.840;4.346;2024-01-30T01:56:33;14.70;99.90
25410;DHT22;13339;50.840;4.346;2024-01-30T01:59:06;14.80;99.90
25410;DHT22;13339;50.840;4.346;2024-01-30T02:01:38;14.70;99.90
25410;DHT22;13339;50.840;4.346;2024-01-30T02:04:04;14.70;99.90
25410;DHT22;13339;50.840;4.346;2024-01-30T02:06:30;14.70;99.90
25410;DHT22;13339;50.840;4.346;2024-01-30T02:08:56;14.70;99.90
25410;DHT22;13339;50.840;4.346;2024-01-30T02:11:23;14.70;99.90
25410;DHT22;13339;50.840;4.346;2024-01-30T02:13:49;14.70;99.90
25410;DHT22;13339;50.840;4.346;2024-01-30T02:16:15;14.70;99.90
25410;DHT22;13339;50.840;4.346;2024-01-30T02:18:42;14.70;99.90
25410;DHT22;13339;50.840;4.346;2024-01-30T02:21:10;14.80;99.90
25410;DHT22;13339;50.840;4.346;2024-01-30T02:23:36;14.70;99.90
25410;DHT22;13339;50.840;4.346;2024-01-30T02:26:03;14.70;99.90
25410;DHT22;13339;50.840;4.346;2024-01-30T02:28:28;14.60;99.90
25410;DHT22;13339;50.840;4.346;2024-01-30T02:30:54;14.70;99.90
25410;DHT22;13339;50.840;4.346;2024-01-30T02:33:19;14.70;99.90
25410;DHT22;13339;50.840;4.346;2024-01-30T02:35:47;14.70;99.90
25410;DHT22;13339;50.840;4.346;2024-01-30T02:38:13;14.70;99.90
25410;DHT22;13339;50.840;4.346;2024-01-30T02:40:38;14.70;99.90
25410;DHT22;13339;50.840;4.346;2024-01-30T02:43:04;14.70;99.90
25410;DHT22;13339;50.840;4.346;2024-01-30T02:45:30;14.70;99.90
25410;DHT22;13339;50.840;4.346;2024-01-30T02:47:56;14.70;99.90
25410;DHT22;13339;50.840;4.346;2024-01-30T02:50:21;14.70;99.90
25410;DHT22;13339;50.840;4.346;2024-01-30T02:52:47;14.70;99.90
25410;DHT22;13339;50.840;4.346;2024-01-30T02:55:12;14.80;99.90
25410;DHT22;13339;50.840;4.346;2024-01-30T02:57:38;14.70;99.90
25410;DHT22;13339;50.840;4.346;2024-01-30T03:00:05;14.80;99.90
25410;DHT22;13339;50.840;4.346;2024-01-30T03:02:32;14.70;99.90
25410;DHT22;13339;50.840;4.346;2024-01-30T03:04:58;14.70;99.90
25410;DHT22;13339;50.840;4.346;2024-01-30T03:07:24;14.70;99.90
25410;DHT22;13339;50.840;4.346;2024-01-30T03:09:50;14.70;99.90
25410;DHT22;13339;50.840;4.346;2024-01-30T03:12:15;14.70;99.90
25410;DHT22;13339;50.840;4.346;2024-01-30T03:14:41;14.70;99.90
25410;DHT22;13339;50.840;4.346;2024-01-30T03:17:06;14.70;99.90
25410;DHT22;13339;50.840;4.346;2024-01-30T03:19:32;14.70;99.90
25410;DHT22;13339;50.840;4.346;2024-01-30T03:21:58;14.70;99.90
25410;DHT22;13339;50.840;4.346;2024-01-30T03:24:24;14.80;99.90
25410;DHT22;13339;50.840;4.346;2024-01-30T03:26:50;14.70;99.90
25410;DHT22;13339;50.840;4.346;2024-01-30T03:29:15;14.80;99.90
25410;DHT22;13339;50.840;4.346;2024-01-30T03:31:41;14.80;99.90
25410;DHT22;13339;50.840;4.346;2024-01-30T03:34:06;14.70;99.90
25410;DHT22;13339;50.840;4.346;2024-01-30T03:36:32;14.80;99.90
25410;DHT22;13339;50.840;4.346;2024-01-30T03:38:59;14.80;99.90
25410;DHT22;13339;50.840;4.346;2024-01-30T03:41:25;14.80;99.90
25410;DHT22;13339;50.840;4.346;2024-01-30T03:43:51;14.80;99.90
25410;DHT22;13339;50.840;4.346;2024-01-30T03:46:17;14.80;99.90
25410;DHT22;13339;50.840;4.346;2024-01-30T03:48:42;14.80;99.90
25410;DHT22;13339;50.840;4.346;2024-01-30T03:51:08;14.70;99.90
25410;DHT22;13339;50.840;4.346;2024-01-30T04:00:18;14.70;99.90
25410;DHT22;13339;50.840;4.346;2024-01-30T04:02:45;14.80;99.90
25410;DHT22;13339;50.840;4.346;2024-01-30T04:05:10;14.60;99.90
25410;DHT22;13339;50.840;4.346;2024-01-30T04:07:36;14.70;99.90
25410;DHT22;13339;50.840;4.346;2024-01-30T04:10:01;14.80;99.90
25410;DHT22;13339;50.840;4.346;2024-01-30T04:12:27;14.80;99.90
25410;DHT22;13339;50.840;4.346;2024-01-30T04:14:53;14.80;99.90
25410;DHT22;13339;50.840;4.346;2024-01-30T04:17:18;14.80;99.90
25410;DHT22;13339;50.840;4.346;2024-01-30T04:19:44;14.80;99.90
25410;DHT22;13339;50.840;4.346;2024-01-30T04:22:09;14.70;99.90
25410;DHT22;13339;50.840;4.346;2024-01-30T04:24:35;14.80;99.90
25410;DHT22;13339;50.840;4.346;2024-01-30T04:27:01;14.80;99.90
25410;DHT22;13339;50.840;4.346;2024-01-30T04:29:26;14.90;99.90
25410;DHT22;13339;50.840;4.346;2024-01-30T04:31:52;14.80;99.90
25410;DHT22;13339;50.840;4.346;2024-01-30T04:34:17;14.80;99.90
25410;DHT22;13339;50.840;4.346;2024-01-30T04:36:44;14.80;99.90
25410;DHT22;13339;50.840;4.346;2024-01-30T04:39:10;14.90;99.90
25410;DHT22;13339;50.840;4.346;2024-01-30T04:41:36;14.90;99.90
25410;DHT22;13339;50.840;4.346;2024-01-30T04:44:01;14.80;99.90
25410;DHT22;13339;50.840;4.346;2024-01-30T04:46:27;14.70;99.90
25410;DHT22;13339;50.840;4.346;2024-01-30T04:48:53;14.70;99.90
25410;DHT22;13339;50.840;4.346;2024-01-30T04:51:19;14.70;99.90
25410;DHT22;13339;50.840;4.346;2024-01-30T04:53:44;14.70;99.90
25410;DHT22;13339;50.840;4.346;2024-01-30T04:56:10;14.70;99.90
25410;DHT22;13339;50.840;4.346;2024-01-30T04:58:36;14.60;99.90
25410;DHT22;13339;50.840;4.346;2024-01-30T05:01:02;14.60;99.90
25410;DHT22;13339;50.840;4.346;2024-01-30T05:03:28;14.60;99.90
25410;DHT22;13339;50.840;4.346;2024-01-30T05:05:53;14.60;99.90
25410;DHT22;13339;50.840;4.346;2024-01-30T05:08:19;14.60;99.90
25410;DHT22;13339;50.840;4.346;2024-01-30T05:10:44;14.60;99.90
25410;DHT22;13339;50.840;4.346;2024-01-30T05:13:10;14.70;99.90
25410;DHT22;13339;50.840;4.346;2024-01-30T05:15:35;14.70;99.90
25410;DHT22;13339;50.840;4.346;2024-01-30T05:18:01;14.70;99.90
25410;DHT22;13339;50.840;4.346;2024-01-30T05:20:27;14.70;99.90
25410;DHT22;13339;50.840;4.346;2024-01-30T05:22:55;14.60;99.90
25410;DHT22;13339;50.840;4.346;2024-01-30T05:25:20;14.60;99.90
25410;DHT22;13339;50.840;4.346;2024-01-30T05:27:46;14.60;99.90
25410;DHT22;13339;50.840;4.346;2024-01-30T05:30:12;14.60;99.90
25410;DHT22;13339;50.840;4.346;2024-01-30T05:32:38;14.60;99.90
25410;DHT22;13339;50.840;4.346;2024-01-30T05:35:03;14.60;99.90
25410;DHT22;13339;50.840;4.346;2024-01-30T05:37:29;14.60;99.90
25410;DHT22;13339;50.840;4.346;2024-01-30T05:39:55;14.50;99.90
25410;DHT22;13339;50.840;4.346;2024-01-30T05:42:20;14.50;99.90
25410;DHT22;13339;50.840;4.346;2024-01-30T05:44:46;14.50;99.90
25410;DHT22;13339;50.840;4.346;2024-01-30T05:47:11;14.50;99.90
25410;DHT22;13339;50.840;4.346;2024-01-30T05:49:37;14.60;99.90
25410;DHT22;13339;50.840;4.346;2024-01-30T05:52:04;14.60;99.90
25410;DHT22;13339;50.840;4.346;2024-01-30T05:54:30;14.60;99.90
25410;DHT22;13339;50.840;4.346;2024-01-30T05:56:56;14.60;99.90
25410;DHT22;13339;50.840;4.346;2024-01-30T05:59:21;14.70;99.90
25410;DHT22;13339;50.840;4.346;2024-01-30T06:01:47;14.70;99.90
25410;DHT22;13339;50.840;4.346;2024-01-30T06:04:13;14.80;99.90
25410;DHT22;13339;50.840;4.346;2024-01-30T06:06:39;14.80;99.90
25410;DHT22;13339;50.840;4.346;2024-01-30T06:09:05;14.60;99.90
25410;DHT22;13339;50.840;4.346;2024-01-30T06:11:31;14.70;99.90
25410;DHT22;13339;50.840;4.346;2024-01-30T06:13:56;14.70;99.90
25410;DHT22;13339;50.840;4.346;2024-01-30T06:16:22;14.70;99.90
25410;DHT22;13339;50.840;4.346;2024-01-30T06:18:48;14.70;99.90
25410;DHT22;13339;50.840;4.346;2024-01-30T06:21:14;14.60;99.90
25410;DHT22;13339;50.840;4.346;2024-01-30T06:23:39;14.60;99.90
25410;DHT22;13339;50.840;4.346;2024-01-30T06:26:07;14.60;99.90
25410;DHT22;13339;50.840;4.346;2024-01-30T06:28:32;14.50;99.90
25410;DHT22;13339;50.840;4.346;2024-01-30T06:30:58;14.40;99.90
25410;DHT22;13339;50.840;4.346;2024-01-30T06:33:26;14.40;99.90
25410;DHT22;13339;50.840;4.346;2024-01-30T06:35:51;14.50;99.90
25410;DHT22;13339;50.840;4.346;2024-01-30T06:38:17;14.50;99.90
25410;DHT22;13339;50.840;4.346;2024-01-30T06:40:42;14.50;99.90
25410;DHT22;13339;50.840;4.346;2024-01-30T06:43:08;14.50;99.90
25410;DHT22;13339;50.840;4.346;2024-01-30T06:45:34;14.40;99.90
25410;DHT22;13339;50.840;4.346;2024-01-30T06:48:00;14.40;99.90
25410;DHT22;13339;50.840;4.346;2024-01-30T06:50:26;14.30;99.90
25410;DHT22;13339;50.840;4.346;2024-01-30T06:52:51;14.30;99.90
25410;DHT22;13339;50.840;4.346;2024-01-30T06:55:18;14.40;99.90
25410;DHT22;13339;50.840;4.346;2024-01-30T06:57:44;14.50;99.90
25410;DHT22;13339;50.840;4.346;2024-01-30T07:00:10;14.50;99.90
25410;DHT22;13339;50.840;4.346;2024-01-30T07:02:35;14.50;99.90
25410;DHT22;13339;50.840;4.346;2024-01-30T07:05:02;14.40;99.90
25410;DHT22;13339;50.840;4.346;2024-01-30T07:07:28;14.40;99.90
25410;DHT22;13339;50.840;4.346;2024-01-30T07:09:54;14.40;99.90
25410;DHT22;13339;50.840;4.346;2024-01-30T07:12:22;14.40;99.90
25410;DHT22;13339;50.840;4.346;2024-01-30T07:14:48;14.40;99.90
25410;DHT22;13339;50.840;4.346;2024-01-30T07:17:14;14.40;99.90
25410;DHT22;13339;50.840;4.346;2024-01-30T07:19:39;14.30;99.90
25410;DHT22;13339;50.840;4.346;2024-01-30T07:22:05;14.40;99.90
25410;DHT22;13339;50.840;4.346;2024-01-30T07:24:30;14.30;99.90
25410;DHT22;13339;50.840;4.346;2024-01-30T07:26:56;14.40;99.90
25410;DHT22;13339;50.840;4.346;2024-01-30T07:29:22;14.50;99.90
25410;DHT22;13339;50.840;4.346;2024-01-30T07:31:47;14.50;99.90
25410;DHT22;13339;50.840;4.346;2024-01-30T07:34:13;14.50;99.90
25410;DHT22;13339;50.840;4.346;2024-01-30T07:36:39;14.50;99.90
25410;DHT22;13339;50.840;4.346;2024-01-30T07:39:04;14.50;99.90
25410;DHT22;13339;50.840;4.346;2024-01-30T07:41:30;14.50;99.90
25410;DHT22;13339;50.840;4.346;2024-01-30T07:43:56;14.40;99.90
25410;DHT22;13339;50.840;4.346;2024-01-30T07:46:21;14.20;99.90
25410;DHT22;13339;50.840;4.346;2024-01-30T07:48:47;14.10;99.90
25410;DHT22;13339;50.840;4.346;2024-01-30T07:51:13;14.20;99.90
25410;DHT22;13339;50.840;4.346;2024-01-30T07:53:38;14.20;99.90
25410;DHT22;13339;50.840;4.346;2024-01-30T07:56:05;14.30;99.90
25410;DHT22;13339;50.840;4.346;2024-01-30T07:58:30;14.20;99.90
25410;DHT22;13339;50.840;4.346;2024-01-30T08:00:56;14.20;99.90
25410;DHT22;13339;50.840;4.346;2024-01-30T08:03:24;14.20;99.90
25410;DHT22;13339;50.840;4.346;2024-01-30T08:05:49;14.30;99.90
25410;DHT22;13339;50.840;4.346;2024-01-30T08:08:15;14.20;99.90
25410;DHT22;13339;50.840;4.346;2024-01-30T08:10:41;14.30;99.90
25410;DHT22;13339;50.840;4.346;2024-01-30T08:13:06;14.20;99.90
25410;DHT22;13339;50.840;4.346;2024-01-30T08:15:34;14.30;99.90
25410;DHT22;13339;50.840;4.346;2024-01-30T08:18:00;14.20;99.90
25410;DHT22;13339;50.840;4.346;2024-01-30T08:20:25;14.30;99.90
25410;DHT22;13339;50.840;4.346;2024-01-30T08:22:51;14.30;99.90
25410;DHT22;13339;50.840;4.346;2024-01-30T08:25:17;14.50;99.90
25410;DHT22;13339;50.840;4.346;2024-01-30T08:27:44;14.50;99.90
25410;DHT22;13339;50.840;4.346;2024-01-30T08:30:10;14.60;99.90
25410;DHT22;13339;50.840;4.346;2024-01-30T08:32:36;14.60;99.90
25410;DHT22;13339;50.840;4.346;2024-01-30T08:35:02;14.60;99.90
25410;DHT22;13339;50.840;4.346;2024-01-30T08:37:30;14.60;99.90
25410;DHT22;13339;50.840;4.346;2024-01-30T08:39:56;14.60;99.90
25410;DHT22;13339;50.840;4.346;2024-01-30T08:42:22;14.60;99.90
25410;DHT22;13339;50.840;4.346;2024-01-30T08:44:49;14.60;99.90
25410;DHT22;13339;50.840;4.346;2024-01-30T08:47:16;14.70;99.90
25410;DHT22;13339;50.840;4.346;2024-01-30T08:49:43;14.60;99.90
25410;DHT22;13339;50.840;4.346;2024-01-30T08:52:10;14.60;99.90
25410;DHT22;13339;50.840;4.346;2024-01-30T08:54:35;14.60;99.90
25410;DHT22;13339;50.840;4.346;2024-01-30T08:57:01;14.60;99.90
25410;DHT22;13339;50.840;4.346;2024-01-30T08:59:27;14.70;99.90
25410;DHT22;13339;50.840;4.346;2024-01-30T09:01:53;14.70;99.90
25410;DHT22;13339;50.840;4.346;2024-01-30T09:04:21;14.60;99.90
25410;DHT22;13339;50.840;4.346;2024-01-30T09:06:47;14.70;99.90
25410;DHT22;13339;50.840;4.346;2024-01-30T09:09:13;14.70;99.90
25410;DHT22;13339;50.840;4.346;2024-01-30T09:11:40;14.80;99.90
25410;DHT22;13339;50.840;4.346;2024-01-30T09:14:05;14.90;99.90
25410;DHT22;13339;50.840;4.346;2024-01-30T09:16:31;15.00;99.90
25410;DHT22;13339;50.840;4.346;2024-01-30T09:18:57;15.00;99.90
25410;DHT22;13339;50.840;4.346;2024-01-30T09:21:22;15.00;99.90
25410;DHT22;13339;50.840;4.346;2024-01-30T09:23:48;15.10;99.90
25410;DHT22;13339;50.840;4.346;2024-01-30T09:26:14;15.00;99.90
25410;DHT22;13339;50.840;4.346;2024-01-30T09:28:39;15.10;99.90
25410;DHT22;13339;50.840;4.346;2024-01-30T09:31:11;15.20;99.90
25410;DHT22;13339;50.840;4.346;2024-01-30T09:33:38;15.10;99.90
25410;DHT22;13339;50.840;4.346;2024-01-30T09:36:05;15.00;99.90
25410;DHT22;13339;50.840;4.346;2024-01-30T09:38:31;15.00;99.90
25410;DHT22;13339;50.840;4.346;2024-01-30T09:40:59;14.90;99.90
25410;DHT22;13339;50.840;4.346;2024-01-30T09:43:31;14.80;99.90
25410;DHT22;13339;50.840;4.346;2024-01-30T09:45:59;14.70;99.90
25410;DHT22;13339;50.840;4.346;2024-01-30T09:48:25;14.70;99.90
25410;DHT22;13339;50.840;4.346;2024-01-30T09:50:52;14.70;99.90
25410;DHT22;13339;50.840;4.346;2024-01-30T09:53:19;14.70;99.90
25410;DHT22;13339;50.840;4.346;2024-01-30T09:55:45;14.60;99.90
25410;DHT22;13339;50.840;4.346;2024-01-30T09:58:12;14.60;99.90
25410;DHT22;13339;50.840;4.346;2024-01-30T10:00:38;14.40;99.90
25410;DHT22;13339;50.840;4.346;2024-01-30T10:03:04;14.40;99.90
25410;DHT22;13339;50.840;4.346;2024-01-30T10:05:31;14.40;99.90
25410;DHT22;13339;50.840;4.346;2024-01-30T10:07:59;14.40;99.90
25410;DHT22;13339;50.840;4.346;2024-01-30T10:10:25;14.50;99.90
25410;DHT22;13339;50.840;4.346;2024-01-30T10:12:51;14.50;99.90
25410;DHT22;13339;50.840;4.346;2024-01-30T10:15:17;14.40;99.90
25410;DHT22;13339;50.840;4.346;2024-01-30T10:17:45;14.40;99.90
25410;DHT22;13339;50.840;4.346;2024-01-30T10:20:11;14.30;99.90
25410;DHT22;13339;50.840;4.346;2024-01-30T10:22:36;14.20;99.90
25410;DHT22;13339;50.840;4.346;2024-01-30T10:25:02;14.30;99.90
25410;DHT22;13339;50.840;4.346;2024-01-30T10:27:28;14.50;99.90
25410;DHT22;13339;50.840;4.346;2024-01-30T10:29:55;14.40;99.90
25410;DHT22;13339;50.840;4.346;2024-01-30T10:32:21;14.50;99.90
25410;DHT22;13339;50.840;4.346;2024-01-30T10:34:47;14.50;99.90
25410;DHT22;13339;50.840;4.346;2024-01-30T10:37:12;14.60;99.90
25410;DHT22;13339;50.840;4.346;2024-01-30T10:39:43;14.50;99.90
25410;DHT22;13339;50.840;4.346;2024-01-30T10:42:14;14.40;99.90
25410;DHT22;13339;50.840;4.346;2024-01-30T10:45:02;14.20;99.90
25410;DHT22;13339;50.840;4.346;2024-01-30T10:47:31;14.30;99.90
25410;DHT22;13339;50.840;4.346;2024-01-30T10:49:59;14.40;99.90
25410;DHT22;13339;50.840;4.346;2024-01-30T10:52:26;14.50;99.90
25410;DHT22;13339;50.840;4.346;2024-01-30T10:54:54;14.50;99.90
25410;DHT22;13339;50.840;4.346;2024-01-30T10:57:23;14.50;99.90
25410;DHT22;13339;50.840;4.346;2024-01-30T10:59:49;14.40;99.90
25410;DHT22;13339;50.840;4.346;2024-01-30T11:02:17;14.50;99.90
25410;DHT22;13339;50.840;4.346;2024-01-30T11:04:43;14.50;99.90
25410;DHT22;13339;50.840;4.346;2024-01-30T11:07:23;14.30;99.90
25410;DHT22;13339;50.840;4.346;2024-01-30T11:09:54;14.30;99.90
25410;DHT22;13339;50.840;4.346;2024-01-30T11:12:29;14.40;99.90
25410;DHT22;13339;50.840;4.346;2024-01-30T11:15:14;14.30;99.90
25410;DHT22;13339;50.840;4.346;2024-01-30T11:22:47;14.10;99.90
25410;DHT22;13339;50.840;4.346;2024-01-30T11:25:14;14.00;99.90
25410;DHT22;13339;50.840;4.346;2024-01-30T11:27:41;14.10;99.90
25410;DHT22;13339;50.840;4.346;2024-01-30T11:30:07;14.10;99.90
25410;DHT22;13339;50.840;4.346;2024-01-30T11:32:33;14.10;99.90
25410;DHT22;13339;50.840;4.346;2024-01-30T11:34:59;14.00;99.90
25410;DHT22;13339;50.840;4.346;2024-01-30T11:37:28;14.00;99.90
25410;DHT22;13339;50.840;4.346;2024-01-30T11:39:54;13.80;99.90
25410;DHT22;13339;50.840;4.346;2024-01-30T11:42:23;13.90;99.90
25410;DHT22;13339;50.840;4.346;2024-01-30T11:44:53;13.90;99.90
25410;DHT22;13339;50.840;4.346;2024-01-30T11:47:18;13.80;99.90
25410;DHT22;13339;50.840;4.346;2024-01-30T11:49:44;13.80;99.90
25410;DHT22;13339;50.840;4.346;2024-01-30T11:52:10;13.80;99.90
25410;DHT22;13339;50.840;4.346;2024-01-30T11:54:39;13.90;99.90
25410;DHT22;13339;50.840;4.346;2024-01-30T11:57:05;14.00;99.90
25410;DHT22;13339;50.840;4.346;2024-01-30T11:59:30;13.90;99.90
25410;DHT22;13339;50.840;4.346;2024-01-30T12:01:56;14.00;99.90
25410;DHT22;13339;50.840;4.346;2024-01-30T12:04:22;14.20;99.90
25410;DHT22;13339;50.840;4.346;2024-01-30T12:06:51;14.30;99.90
25410;DHT22;13339;50.840;4.346;2024-01-30T12:09:17;14.20;99.90
25410;DHT22;13339;50.840;4.346;2024-01-30T12:11:46;14.20;99.90
25410;DHT22;13339;50.840;4.346;2024-01-30T12:14:13;14.20;99.90
25410;DHT22;13339;50.840;4.346;2024-01-30T12:16:39;14.20;99.90
25410;DHT22;13339;50.840;4.346;2024-01-30T12:19:05;14.20;99.90
25410;DHT22;13339;50.840;4.346;2024-01-30T12:21:31;14.20;99.90
25410;DHT22;13339;50.840;4.346;2024-01-30T12:23:57;14.20;99.90
25410;DHT22;13339;50.840;4.346;2024-01-30T12:26:24;14.20;99.90
25410;DHT22;13339;50.840;4.346;2024-01-30T12:28:54;14.10;99.90
25410;DHT22;13339;50.840;4.346;2024-01-30T12:31:26;14.10;99.90
25410;DHT22;13339;50.840;4.346;2024-01-30T12:33:52;14.10;99.90
25410;DHT22;13339;50.840;4.346;2024-01-30T12:36:18;14.10;99.90
25410;DHT22;13339;50.840;4.346;2024-01-30T12:38:44;14.00;99.90
25410;DHT22;13339;50.840;4.346;2024-01-30T12:41:10;14.10;99.90
25410;DHT22;13339;50.840;4.346;2024-01-30T12:43:36;14.20;99.90
25410;DHT22;13339;50.840;4.346;2024-01-30T12:46:03;14.30;99.90
25410;DHT22;13339;50.840;4.346;2024-01-30T12:48:28;14.30;99.90
25410;DHT22;13339;50.840;4.346;2024-01-30T12:50:55;14.40;99.90
25410;DHT22;13339;50.840;4.346;2024-01-30T12:53:21;14.50;99.90
25410;DHT22;13339;50.840;4.346;2024-01-30T12:55:47;14.50;99.90
25410;DHT22;13339;50.840;4.346;2024-01-30T12:58:15;14.60;99.90
25410;DHT22;13339;50.840;4.346;2024-01-30T13:00:41;14.60;99.90
25410;DHT22;13339;50.840;4.346;2024-01-30T13:03:08;14.50;99.90
25410;DHT22;13339;50.840;4.346;2024-01-30T13:05:35;14.50;99.90
25410;DHT22;13339;50.840;4.346;2024-01-30T13:08:01;14.60;99.90
25410;DHT22;13339;50.840;4.346;2024-01-30T13:10:26;14.70;99.90
25410;DHT22;13339;50.840;4.346;2024-01-30T13:12:52;14.80;99.90
25410;DHT22;13339;50.840;4.346;2024-01-30T13:15:18;14.90;99.90
25410;DHT22;13339;50.840;4.346;2024-01-30T13:17:44;15.00;99.90
25410;DHT22;13339;50.840;4.346;2024-01-30T13:20:13;14.90;99.90
25410;DHT22;13339;50.840;4.346;2024-01-30T13:22:43;14.80;99.90
25410;DHT22;13339;50.840;4.346;2024-01-30T13:25:08;14.80;99.90
25410;DHT22;13339;50.840;4.346;2024-01-30T13:27:34;14.80;99.90
25410;DHT22;13339;50.840;4.346;2024-01-30T13:30:00;14.80;99.90
25410;DHT22;13339;50.840;4.346;2024-01-30T13:32:25;14.80;99.90
25410;DHT22;13339;50.840;4.346;2024-01-30T13:34:51;14.70;99.90
25410;DHT22;13339;50.840;4.346;2024-01-30T13:37:17;14.70;99.90
25410;DHT22;13339;50.840;4.346;2024-01-30T13:39:42;14.70;99.90
25410;DHT22;13339;50.840;4.346;2024-01-30T13:42:08;14.70;99.90
25410;DHT22;13339;50.840;4.346;2024-01-30T13:44:35;14.70;99.90
25410;DHT22;13339;50.840;4.346;2024-01-30T13:47:01;14.60;99.90
25410;DHT22;13339;50.840;4.346;2024-01-30T13:49:26;14.50;99.90
25410;DHT22;13339;50.840;4.346;2024-01-30T13:51:52;14.50;99.90
25410;DHT22;13339;50.840;4.346;2024-01-30T13:54:18;14.30;99.90
25410;DHT22;13339;50.840;4.346;2024-01-30T13:56:44;14.30;99.90
25410;DHT22;13339;50.840;4.346;2024-01-30T13:59:09;14.10;99.90
25410;DHT22;13339;50.840;4.346;2024-01-30T14:01:35;14.00;99.90
25410;DHT22;13339;50.840;4.346;2024-01-30T14:04:00;14.00;99.90
25410;DHT22;13339;50.840;4.346;2024-01-30T14:06:26;14.00;99.90
25410;DHT22;13339;50.840;4.346;2024-01-30T14:08:52;14.10;99.90
25410;DHT22;13339;50.840;4.346;2024-01-30T14:11:17;14.10;99.90
25410;DHT22;13339;50.840;4.346;2024-01-30T14:13:43;14.00;99.90
25410;DHT22;13339;50.840;4.346;2024-01-30T14:16:09;13.90;99.90
25410;DHT22;13339;50.840;4.346;2024-01-30T14:18:35;13.90;99.90
25410;DHT22;13339;50.840;4.346;2024-01-30T14:21:00;13.90;99.90
25410;DHT22;13339;50.840;4.346;2024-01-30T14:23:26;13.90;99.90
25410;DHT22;13339;50.840;4.346;2024-01-30T14:25:52;13.80;99.90
25410;DHT22;13339;50.840;4.346;2024-01-30T14:28:18;13.80;99.90
25410;DHT22;13339;50.840;4.346;2024-01-30T14:30:43;13.80;99.90
25410;DHT22;13339;50.840;4.346;2024-01-30T14:33:09;13.80;99.90
25410;DHT22;13339;50.840;4.346;2024-01-30T14:35:35;13.90;99.90
25410;DHT22;13339;50.840;4.346;2024-01-30T14:38:00;13.90;99.90
25410;DHT22;13339;50.840;4.346;2024-01-30T14:40:27;13.80;99.90
25410;DHT22;13339;50.840;4.346;2024-01-30T14:42:52;13.70;99.90
25410;DHT22;13339;50.840;4.346;2024-01-30T14:45:18;13.60;99.90
25410;DHT22;13339;50.840;4.346;2024-01-30T14:47:44;13.50;99.90
25410;DHT22;13339;50.840;4.346;2024-01-30T14:50:10;13.40;99.90
25410;DHT22;13339;50.840;4.346;2024-01-30T14:52:36;13.40;99.90
25410;DHT22;13339;50.840;4.346;2024-01-30T14:55:02;13.40;99.90
25410;DHT22;13339;50.840;4.346;2024-01-30T14:57:28;13.40;99.90
25410;DHT22;13339;50.840;4.346;2024-01-30T14:59:54;13.40;99.90
25410;DHT22;13339;50.840;4.346;2024-01-30T15:02:19;13.40;99.90
25410;DHT22;13339;50.840;4.346;2024-01-30T15:04:45;13.30;99.90
25410;DHT22;13339;50.840;4.346;2024-01-30T15:07:11;13.20;99.90
25410;DHT22;13339;50.840;4.346;2024-01-30T15:09:36;13.20;99.90
25410;DHT22;13339;50.840;4.346;2024-01-30T15:12:02;13.20;99.90
25410;DHT22;13339;50.840;4.346;2024-01-30T15:14:28;13.10;99.90
25410;DHT22;13339;50.840;4.346;2024-01-30T15:16:53;13.10;99.90
25410;DHT22;13339;50.840;4.346;2024-01-30T15:19:19;13.20;99.90
25410;DHT22;13339;50.840;4.346;2024-01-30T15:21:45;13.20;99.90
25410;DHT22;13339;50.840;4.346;2024-01-30T15:24:10;13.30;99.90
25410;DHT22;13339;50.840;4.346;2024-01-30T15:26:40;13.10;99.90
25410;DHT22;13339;50.840;4.346;2024-01-30T15:29:06;13.00;99.90
25410;DHT22;13339;50.840;4.346;2024-01-30T15:31:31;12.90;99.90
25410;DHT22;13339;50.840;4.346;2024-01-30T15:33:57;12.90;99.90
25410;DHT22;13339;50.840;4.346;2024-01-30T15:36:23;13.00;99.90